Time;durP1;ratioP1;P1;durP2;ratioP2;P2;SDS_P1;SDS_P2;PMS_P1;PMS_P2;Temp;Humidity;BMP_temperature;BMP_pressure;BME280_temperature;BME280_humidity;BME280_pressure;Samples;Min_cycle;Max_cycle;Signal;HPM_P1;HPM_P2
2021/03/17 00:02:27;;;;;;;;;17.75;17.75;;;;;6.63;83.98;99960.69;4879516;29;12505;-77
2021/03/17 00:05:31;;;;;;;;;17.00;17.00;;;;;6.66;83.61;99951.00;4876948;29;11697;-77
2021/03/17 00:08:27;;;;;;;;;14.75;14.75;;;;;6.65;83.62;99946.63;4867411;29;11744;-76
2021/03/17 00:11:24;;;;;;;;;22.75;21.00;;;;;6.72;83.74;99948.91;4867205;29;11830;-76
2021/03/17 00:14:19;;;;;;;;;19.00;19.00;;;;;6.82;83.02;99938.38;4868339;29;11771;-76
2021/03/17 00:17:15;;;;;;;;;19.75;18.50;;;;;6.65;83.34;99938.38;4862200;29;11935;-76
2021/03/17 00:20:11;;;;;;;;;21.50;18.75;;;;;6.80;82.71;99940.66;4861027;29;11741;-76
2021/03/17 00:23:08;;;;;;;;;20.50;18.50;;;;;6.75;83.00;99937.25;4861033;29;11855;-76
2021/03/17 00:26:03;;;;;;;;;20.25;19.00;;;;;6.86;83.04;99933.06;4879426;29;11705;-77
2021/03/17 00:28:59;;;;;;;;;27.00;24.00;;;;;6.56;83.47;99938.38;4867524;29;11694;-76
2021/03/17 00:31:54;;;;;;;;;20.25;20.25;;;;;6.55;83.69;99939.53;4879022;29;11739;-77
2021/03/17 00:34:22;;;;;;;;;18.25;18.25;;;;;6.73;83.04;99934.81;4881763;29;11733;-77
2021/03/17 00:37:17;;;;;;;;;21.75;19.25;;;;;6.54;83.91;99926.09;4879297;29;11799;-76
2021/03/17 00:39:58;;;;;;;;;26.50;26.50;;;;;6.86;82.98;99930.31;4879634;29;11742;-75
2021/03/17 00:42:54;;;;;;;;;23.25;23.25;;;;;6.68;83.53;99922.06;4866798;29;11712;-76
2021/03/17 00:45:49;;;;;;;;;27.00;26.00;;;;;6.55;84.01;99923.03;4866548;29;11835;-76
2021/03/17 00:48:45;;;;;;;;;25.75;24.50;;;;;6.86;83.09;99927.56;4866467;29;11750;-76
2021/03/17 00:51:42;;;;;;;;;23.75;20.00;;;;;6.65;83.31;99921.91;4879193;29;11709;-75
2021/03/17 00:54:37;;;;;;;;;17.25;17.25;;;;;6.67;83.20;99920.47;4879672;29;11718;-75
2021/03/17 00:57:33;;;;;;;;;24.25;24.25;;;;;6.88;83.31;99923.34;4878929;29;11705;-76
2021/03/17 01:00:29;;;;;;;;;22.25;22.25;;;;;7.16;81.74;99923.81;4878281;29;11711;-76
2021/03/17 01:03:24;;;;;;;;;21.75;20.25;;;;;6.74;83.31;99930.94;4859828;29;11886;-75
2021/03/17 01:06:20;;;;;;;;;31.00;29.50;;;;;6.95;82.48;99923.66;4859759;29;11715;-75
2021/03/17 01:09:16;;;;;;;;;35.00;24.75;;;;;7.04;82.40;99939.34;4859814;29;11780;-76
2021/03/17 01:11:43;;;;;;;;;27.25;26.00;;;;;6.94;83.00;99926.75;4860535;29;11851;-76
2021/03/17 01:14:39;;;;;;;;;26.50;25.25;;;;;6.86;83.19;99925.63;4878684;29;11738;-75
2021/03/17 01:17:35;;;;;;;;;24.00;24.00;;;;;6.76;83.46;99925.16;4849486;29;11728;-76
2021/03/17 01:20:32;;;;;;;;;26.25;26.00;;;;;6.95;82.77;99925.59;4861074;29;11778;-76
2021/03/17 01:23:27;;;;;;;;;25.00;25.00;;;;;6.72;83.59;99926.91;4860030;29;11804;-76
2021/03/17 01:26:23;;;;;;;;;28.25;28.25;;;;;6.75;84.10;99923.50;4860160;29;11756;-75
2021/03/17 01:29:18;;;;;;;;;27.25;24.00;;;;;7.10;82.31;99924.28;4860798;29;11721;-75
2021/03/17 01:32:14;;;;;;;;;31.75;26.50;;;;;7.11;82.43;99923.16;4873164;29;11801;-75
2021/03/17 01:35:12;;;;;;;;;33.00;31.50;;;;;7.25;81.85;99927.34;4878798;29;11733;-76
2021/03/17 01:37:40;;;;;;;;;29.00;28.00;;;;;7.25;81.59;99940.28;4862408;29;11852;-74
2021/03/17 01:40:40;;;;;;;;;33.25;31.50;;;;;7.33;81.36;99927.63;4878859;29;11837;-75
2021/03/17 01:43:36;;;;;;;;;28.75;28.75;;;;;7.38;80.95;99941.22;4879176;29;11711;-76
2021/03/17 01:46:03;;;;;;;;;29.75;28.50;;;;;7.15;81.39;99935.13;4879065;29;11749;-75
2021/03/17 01:48:59;;;;;;;;;32.00;32.00;;;;;7.17;81.64;99928.16;4865990;29;11747;-76
2021/03/17 01:51:55;;;;;;;;;35.00;32.50;;;;;6.93;83.10;99931.44;4888868;29;11725;-76
2021/03/17 01:54:51;;;;;;;;;39.25;36.75;;;;;6.91;83.55;99933.72;4865836;29;11728;-76
2021/03/17 01:57:47;;;;;;;;;41.25;38.75;;;;;7.00;82.94;99932.88;4878061;29;11731;-77
2021/03/17 02:00:43;;;;;;;;;33.25;33.25;;;;;7.07;82.74;99936.75;4875342;29;11803;-76
2021/03/17 02:03:39;;;;;;;;;33.50;33.50;;;;;7.05;82.88;99929.94;4859594;29;11717;-77
2021/03/17 02:06:34;;;;;;;;;44.25;39.25;;;;;7.08;82.72;99927.38;4860756;29;11868;-77
2021/03/17 02:09:30;;;;;;;;;23.75;21.00;;;;;7.17;82.40;99932.84;4848959;29;11759;-77
2021/03/17 02:12:58;;;;;;;;;32.75;32.25;;;;;7.35;81.65;99941.88;4847299;29;11741;-77
2021/03/17 02:16:05;;;;;;;;;38.50;36.50;;;;;7.13;82.58;99932.72;4849544;29;11182;-78
2021/03/17 02:19:13;;;;;;;;;42.75;40.75;;;;;7.30;81.96;99936.56;4859698;29;11741;-77
2021/03/17 02:22:08;;;;;;;;;40.25;36.75;;;;;7.31;81.82;99938.97;4844047;29;12490;-78
2021/03/17 02:25:10;;;;;;;;;42.25;40.25;;;;;7.26;81.76;99936.38;4865751;29;11719;-78
2021/03/17 02:28:09;;;;;;;;;39.25;36.25;;;;;7.39;81.72;99945.59;4880841;29;12524;-78
2021/03/17 02:31:46;;;;;;;;;27.75;27.75;;;;;7.46;81.26;99938.44;4865645;29;11852;-78
2021/03/17 02:34:47;;;;;;;;;35.50;35.50;;;;;7.55;80.97;99940.38;4879970;29;11720;-76
2021/03/17 02:37:48;;;;;;;;;35.50;33.75;;;;;7.38;81.25;99938.47;4881875;29;12630;-77
2021/03/17 02:40:44;;;;;;;;;32.50;32.50;;;;;7.49;81.25;99940.53;4881564;29;11800;-78
2021/03/17 02:43:45;;;;;;;;;49.25;43.50;;;;;7.64;80.46;99941.94;4882034;29;11856;-77
2021/03/17 02:46:42;;;;;;;;;53.75;45.00;;;;;7.36;81.44;99936.06;4881578;29;11721;-77
2021/03/17 02:49:41;;;;;;;;;43.75;40.75;;;;;7.33;81.94;99931.19;4881419;29;11748;-77
2021/03/17 02:52:42;;;;;;;;;41.00;38.50;;;;;7.66;80.96;99936.91;4866754;29;11703;-77
2021/03/17 02:55:43;;;;;;;;;39.00;38.25;;;;;7.39;81.78;99937.34;4880700;29;11770;-76
2021/03/17 02:58:11;;;;;;;;;40.25;38.00;;;;;7.36;82.42;99937.97;4881887;29;11728;-78
2021/03/17 03:01:08;;;;;;;;;24.50;24.25;;;;;7.42;81.55;99931.97;4870342;29;11855;-78
2021/03/17 03:04:07;;;;;;;;;39.75;36.00;;;;;7.37;82.42;99932.16;4868572;29;11731;-76
2021/03/17 03:07:04;;;;;;;;;40.50;39.50;;;;;7.53;81.95;99933.25;4868363;29;11712;-76
2021/03/17 03:10:01;;;;;;;;;30.50;30.50;;;;;7.50;82.12;99933.09;4868601;29;11729;-77
2021/03/17 03:12:58;;;;;;;;;53.25;42.25;;;;;7.47;82.11;99931.00;4880628;29;11732;-76
2021/03/17 03:15:56;;;;;;;;;50.50;41.50;;;;;7.51;82.06;99932.78;4867751;29;11743;-76
2021/03/17 03:18:53;;;;;;;;;38.00;35.00;;;;;7.61;81.62;99936.31;4881716;29;11751;-75
2021/03/17 03:21:49;;;;;;;;;26.50;26.50;;;;;7.83;80.76;99929.75;4875439;29;12553;-76
2021/03/17 03:24:47;;;;;;;;;31.00;31.00;;;;;7.63;81.51;99936.78;4861982;29;11760;-77
2021/03/17 03:27:45;;;;;;;;;38.25;32.50;;;;;7.69;81.35;99938.22;4862598;29;11760;-77
2021/03/17 03:30:45;;;;;;;;;19.50;19.50;;;;;7.60;81.60;99935.50;4862361;29;11772;-76
2021/03/17 03:33:42;;;;;;;;;29.25;29.25;;;;;7.74;81.09;99947.09;4861717;29;11820;-77
2021/03/17 03:36:37;;;;;;;;;19.75;19.75;;;;;7.45;82.67;99947.84;4849851;29;11754;-76
2021/03/17 03:39:34;;;;;;;;;26.25;24.50;;;;;7.48;82.59;99944.44;4880839;29;11722;-76
2021/03/17 03:42:29;;;;;;;;;25.50;25.50;;;;;7.44;82.31;99949.00;4880023;29;11720;-76
2021/03/17 03:45:26;;;;;;;;;31.25;30.25;;;;;7.56;82.39;99944.72;4879790;29;11686;-76
2021/03/17 03:48:23;;;;;;;;;28.00;27.25;;;;;7.56;82.52;99956.53;4879759;29;12539;-76
2021/03/17 03:51:20;;;;;;;;;26.25;26.25;;;;;7.78;81.45;99955.50;4879006;29;11803;-76
2021/03/17 03:54:28;;;;;;;;;25.75;24.25;;;;;7.87;81.28;99961.78;4882279;29;11737;-76
2021/03/17 03:57:28;;;;;;;;;25.50;24.00;;;;;7.80;81.66;99956.78;4879382;29;11729;-76
2021/03/17 04:00:26;;;;;;;;;27.25;27.25;;;;;7.90;81.54;99963.06;4867732;29;11755;-77
2021/03/17 04:03:23;;;;;;;;;24.50;24.50;;;;;7.88;81.82;99959.81;4879854;29;12457;-76
2021/03/17 04:06:18;;;;;;;;;34.50;34.25;;;;;7.96;81.43;99957.03;4879928;29;11693;-77
2021/03/17 04:09:16;;;;;;;;;28.25;26.75;;;;;7.92;81.63;99961.59;4880372;29;11708;-77
2021/03/17 04:12:13;;;;;;;;;21.25;21.00;;;;;7.93;81.88;99954.94;4878963;29;11829;-76
2021/03/17 04:15:11;;;;;;;;;19.25;19.25;;;;;7.92;82.18;99955.28;4879783;29;11693;-77
2021/03/17 04:18:14;;;;;;;;;20.75;20.75;;;;;7.91;82.04;99953.69;4879219;29;11852;-78
2021/03/17 04:21:16;;;;;;;;;21.50;21.50;;;;;7.94;81.73;99959.31;4878270;29;11689;-78
2021/03/17 04:24:14;;;;;;;;;22.50;21.25;;;;;8.02;82.03;99958.47;4862631;29;11826;-76
2021/03/17 04:27:11;;;;;;;;;17.75;17.00;;;;;8.06;81.89;99958.63;4860450;29;11876;-76
2021/03/17 04:30:08;;;;;;;;;28.50;26.50;;;;;8.10;81.97;99962.31;4860755;29;11760;-77
2021/03/17 04:33:05;;;;;;;;;28.25;28.00;;;;;8.10;81.64;99956.81;4848815;29;11735;-77
2021/03/17 04:36:01;;;;;;;;;27.75;27.25;;;;;8.09;81.96;99961.50;4861363;29;11746;-77
2021/03/17 04:38:58;;;;;;;;;23.00;23.00;;;;;8.16;81.63;99957.44;4860473;29;11767;-77
2021/03/17 04:41:26;;;;;;;;;32.50;29.75;;;;;8.20;81.50;99956.41;4861025;29;11736;-78
2021/03/17 04:44:22;;;;;;;;;26.25;26.00;;;;;8.22;81.64;99956.91;4872558;29;11709;-77
2021/03/17 04:47:18;;;;;;;;;20.00;20.00;;;;;8.24;81.39;99954.63;4866092;29;11769;-77
2021/03/17 04:50:17;;;;;;;;;32.00;30.25;;;;;8.28;81.80;99963.03;4878547;29;11738;-76
2021/03/17 04:53:03;;;;;;;;;32.50;32.50;;;;;8.33;81.44;99957.31;4865211;29;11761;-78
2021/03/17 04:56:04;;;;;;;;;31.25;30.75;;;;;8.31;81.44;99954.09;4878767;29;11734;-78
2021/03/17 04:59:01;;;;;;;;;34.75;34.75;;;;;8.42;81.46;99962.81;4865958;29;11739;-77
2021/03/17 05:01:57;;;;;;;;;44.75;41.25;;;;;8.47;81.14;99957.91;4878411;29;11720;-78
2021/03/17 05:04:54;;;;;;;;;39.25;37.75;;;;;8.47;81.36;99959.88;4878296;29;11736;-78
2021/03/17 05:07:53;;;;;;;;;48.75;43.00;;;;;8.41;81.76;99966.72;4868878;29;11714;-77
2021/03/17 05:10:49;;;;;;;;;54.25;47.25;;;;;8.46;81.61;99966.53;4888329;29;11709;-78
2021/03/17 05:13:45;;;;;;;;;47.25;42.00;;;;;8.50;81.67;99961.94;4887496;29;11735;-77
2021/03/17 05:16:42;;;;;;;;;36.00;34.00;;;;;8.70;80.76;99974.94;4861947;29;11760;-78
2021/03/17 05:19:41;;;;;;;;;30.25;29.50;;;;;8.73;80.49;99971.50;4861341;29;11741;-77
2021/03/17 05:22:17;;;;;;;;;29.50;27.00;;;;;8.79;80.13;99983.16;4874421;29;12522;-75
2021/03/17 05:25:17;;;;;;;;;35.75;34.25;;;;;8.71;80.74;99982.06;4866289;29;12541;-78
2021/03/17 05:28:16;;;;;;;;;27.00;26.25;;;;;8.85;80.65;99982.63;4866268;29;12606;-78
2021/03/17 05:31:12;;;;;;;;;40.00;38.25;;;;;8.76;80.57;99984.63;4868740;29;11796;-78
2021/03/17 05:34:08;;;;;;;;;26.75;26.75;;;;;8.67;81.04;99983.09;4878692;29;11732;-77
2021/03/17 05:37:04;;;;;;;;;34.00;33.75;;;;;8.88;80.57;99983.88;4881302;29;11722;-77
2021/03/17 05:40:00;;;;;;;;;37.50;35.00;;;;;8.95;81.01;99986.91;4878006;29;11834;-77
2021/03/17 05:43:01;;;;;;;;;31.25;31.25;;;;;9.01;81.46;99987.53;4866330;29;11737;-78
2021/03/17 05:45:34;;;;;;;;;39.00;37.00;;;;;8.99;81.80;99987.88;4880887;29;11722;-78
2021/03/17 05:48:09;;;;;;;;;39.00;37.50;;;;;9.13;80.65;99990.34;4879413;29;11732;-78
2021/03/17 05:50:39;;;;;;;;;29.75;27.50;;;;;9.17;80.39;99989.31;4878750;29;11817;-80
2021/03/17 05:53:07;;;;;;;;;35.75;34.25;;;;;9.24;79.88;99999.00;4880360;29;11708;-80
2021/03/17 05:55:36;;;;;;;;;33.50;32.00;;;;;9.28;80.54;100003.53;4878655;29;12558;-80
2021/03/17 05:58:03;;;;;;;;;31.00;30.00;;;;;9.31;80.90;100005.59;4879319;29;11750;-79
2021/03/17 06:00:31;;;;;;;;;23.25;23.25;;;;;9.43;80.15;100011.16;4862341;29;12423;-79
2021/03/17 06:02:59;;;;;;;;;19.25;19.25;;;;;9.48;79.58;100015.66;4879494;29;11665;-80
2021/03/17 06:05:27;;;;;;;;;29.25;28.00;;;;;9.47;79.38;100014.03;4863926;29;11677;-79
2021/03/17 06:08:00;;;;;;;;;27.00;26.50;;;;;9.44;79.77;100009.22;4879027;29;11672;-79
2021/03/17 06:10:30;;;;;;;;;17.50;17.50;;;;;9.48;78.95;100016.47;4884130;29;11694;-79
2021/03/17 06:13:21;;;;;;;;;27.00;27.00;;;;;9.58;78.60;100017.97;4866491;29;11677;-74
2021/03/17 06:15:56;;;;;;;;;23.50;23.50;;;;;9.71;79.19;100016.88;4876880;29;11679;-74
2021/03/17 06:18:57;;;;;;;;;23.75;23.75;;;;;10.37;82.66;100010.44;4862819;29;11741;-76
2021/03/17 06:21:49;;;;;;;;;22.00;21.00;;;;;9.96;78.16;100014.16;4863675;29;11652;-72
2021/03/17 06:24:45;;;;;;;;;18.25;18.25;;;;;10.16;78.06;100020.75;4862321;29;11639;-72
2021/03/17 06:27:42;;;;;;;;;21.00;21.00;;;;;10.12;77.92;100026.19;4891574;29;11722;-73
2021/03/17 06:30:40;;;;;;;;;18.50;18.50;;;;;10.06;77.61;100022.00;4884107;29;11789;-72
2021/03/17 06:33:38;;;;;;;;;16.50;16.50;;;;;10.04;76.30;100027.06;4863317;29;11653;-72
2021/03/17 06:36:55;;;;;;;;;19.00;19.00;;;;;10.18;76.15;100029.50;4877617;29;12050;-73
2021/03/17 06:39:37;;;;;;;;;19.75;18.75;;;;;10.23;75.95;100029.31;4881263;29;11651;-73
2021/03/17 06:42:42;;;;;;;;;18.00;18.00;;;;;10.15;76.00;100028.25;4868318;29;11642;-73
2021/03/17 06:45:46;;;;;;;;;25.75;25.75;;;;;10.19;75.63;100028.34;4881353;29;11741;-72
2021/03/17 06:48:42;;;;;;;;;18.00;18.00;;;;;10.26;76.12;100042.44;4867872;29;11661;-73
2021/03/17 06:51:37;;;;;;;;;23.25;23.25;;;;;10.22;75.84;100041.50;4868664;29;12515;-74
2021/03/17 06:54:33;;;;;;;;;23.75;23.75;;;;;10.39;75.69;100033.00;4880922;29;11671;-72
2021/03/17 06:57:28;;;;;;;;;21.00;19.25;;;;;10.26;75.53;100039.66;4881023;29;11664;-72
2021/03/17 07:00:32;;;;;;;;;23.25;21.00;;;;;10.44;75.32;100037.50;4869505;29;11715;-72
2021/03/17 07:03:27;;;;;;;;;19.75;19.75;;;;;10.43;75.46;100035.91;4870488;29;11678;-73
2021/03/17 07:06:24;;;;;;;;;14.00;14.00;;;;;10.29;75.46;100031.50;4862076;29;11736;-73
2021/03/17 07:09:21;;;;;;;;;19.00;19.00;;;;;10.46;75.54;100032.44;4861746;29;11311;-72
2021/03/17 07:11:51;;;;;;;;;21.25;21.25;;;;;10.58;75.32;100032.41;4862860;29;11662;-74
2021/03/17 07:14:49;;;;;;;;;21.00;21.00;;;;;10.70;74.65;100029.63;4861010;29;11454;-75
2021/03/17 07:17:44;;;;;;;;;17.00;17.00;;;;;10.67;74.01;100032.31;4865394;29;11169;-73
2021/03/17 07:20:53;;;;;;;;;14.75;14.75;;;;;10.73;73.51;100039.19;4849671;29;11174;-74
2021/03/17 07:23:49;;;;;;;;;22.50;20.00;;;;;10.71;74.21;100035.97;4862287;29;11214;-73
2021/03/17 07:26:44;;;;;;;;;20.00;19.00;;;;;10.79;73.75;100041.38;4848960;29;12046;-74
2021/03/17 07:29:41;;;;;;;;;18.75;18.75;;;;;10.90;74.15;100035.38;4863060;29;11307;-73
2021/03/17 07:32:56;;;;;;;;;14.00;14.00;;;;;10.92;73.51;100033.88;4869486;29;11249;-73
2021/03/17 07:35:51;;;;;;;;;17.25;17.25;;;;;10.84;73.29;100046.69;4879041;29;12038;-73
2021/03/17 07:38:47;;;;;;;;;10.25;10.25;;;;;10.66;72.76;100050.03;4862710;29;11339;-72
2021/03/17 07:41:45;;;;;;;;;22.00;21.75;;;;;10.84;73.73;100041.16;4877510;29;11329;-72
2021/03/17 07:44:42;;;;;;;;;23.00;21.25;;;;;10.68;74.77;100043.00;4878045;29;11690;-73
2021/03/17 07:47:39;;;;;;;;;25.75;23.50;;;;;10.87;74.13;100050.69;4879256;29;11724;-72
2021/03/17 07:50:37;;;;;;;;;19.50;19.50;;;;;11.14;73.96;100044.44;4875189;29;11792;-70
2021/03/17 07:53:15;;;;;;;;;25.00;25.00;;;;;11.20;73.44;100038.66;4845932;29;12435;-73
2021/03/17 07:56:06;;;;;;;;;20.50;20.00;;;;;11.33;72.34;100029.94;4849062;29;11675;-72
2021/03/17 07:59:02;;;;;;;;;19.75;19.25;;;;;11.44;73.33;100035.78;4849092;29;11247;-72
2021/03/17 08:01:59;;;;;;;;;19.50;19.50;;;;;11.62;72.14;100042.63;4861055;29;11167;-73
2021/03/17 08:04:35;;;;;;;;;17.75;17.75;;;;;11.68;71.50;100040.41;4865610;29;11997;-73
2021/03/17 08:07:32;;;;;;;;;18.75;18.75;;;;;11.52;71.19;100043.13;4879989;29;11363;-72
2021/03/17 08:10:27;;;;;;;;;19.25;19.00;;;;;11.29;70.82;100040.13;4880139;29;10998;-73
2021/03/17 08:13:23;;;;;;;;;19.50;19.25;;;;;11.59;71.16;100050.84;4878975;29;10925;-73
2021/03/17 08:16:21;;;;;;;;;16.50;16.50;;;;;11.63;72.26;100040.66;4861570;29;11094;-72
2021/03/17 08:19:20;;;;;;;;;16.00;16.00;;;;;11.80;71.48;100040.34;4879707;29;11279;-73
2021/03/17 08:22:16;;;;;;;;;20.25;18.25;;;;;11.74;71.17;100035.44;4879594;29;11009;-73
2021/03/17 08:24:52;;;;;;;;;14.75;14.75;;;;;11.92;71.73;100032.00;4880646;29;10823;-72
2021/03/17 08:28:07;;;;;;;;;17.75;17.75;;;;;11.90;70.38;100034.31;4878677;29;11033;-73
2021/03/17 08:31:03;;;;;;;;;17.25;16.25;;;;;12.07;69.79;100029.59;4868058;29;10975;-73
2021/03/17 08:33:59;;;;;;;;;15.75;15.75;;;;;12.09;69.56;100032.81;4863041;29;11003;-72
2021/03/17 08:36:57;;;;;;;;;21.00;21.00;;;;;12.08;69.50;100043.09;4867408;29;10742;-73
2021/03/17 08:39:53;;;;;;;;;19.50;19.50;;;;;12.19;69.06;100035.03;4880308;29;11535;-72
2021/03/17 08:42:49;;;;;;;;;15.25;15.25;;;;;12.17;68.69;100035.41;4879480;29;10819;-73
2021/03/17 08:45:19;;;;;;;;;17.00;16.00;;;;;12.04;69.57;100036.66;4880746;29;10676;-73
2021/03/17 08:47:48;;;;;;;;;18.50;17.25;;;;;12.04;69.21;100035.84;4864284;29;10677;-72
2021/03/17 08:50:48;;;;;;;;;16.75;16.75;;;;;12.30;69.01;100032.56;4879192;29;10714;-72
2021/03/17 08:53:43;;;;;;;;;17.25;17.25;;;;;12.33;68.32;100020.72;4879318;29;10750;-72
2021/03/17 08:56:49;;;;;;;;;16.75;16.75;;;;;12.50;68.78;100023.97;4878520;29;10660;-72
2021/03/17 08:59:52;;;;;;;;;15.50;15.50;;;;;12.61;67.71;100026.16;4866095;29;10612;-73
2021/03/17 09:02:48;;;;;;;;;16.50;16.00;;;;;12.77;68.07;100022.19;4878597;29;10689;-73
2021/03/17 09:05:43;;;;;;;;;16.25;16.25;;;;;12.95;66.33;100027.31;4878789;29;10579;-72
2021/03/17 09:09:01;;;;;;;;;10.25;10.25;;;;;13.01;64.03;100034.22;4859350;29;10650;-73
2021/03/17 09:11:30;;;;;;;;;11.50;11.00;;;;;12.96;63.28;100040.88;4859093;29;10275;-73
2021/03/17 09:14:29;;;;;;;;;16.25;16.25;;;;;13.06;64.01;100029.19;4860745;29;10058;-73
2021/03/17 09:17:29;;;;;;;;;15.25;14.50;;;;;12.91;63.52;100032.81;4859760;29;10269;-72
2021/03/17 09:20:06;;;;;;;;;13.00;13.00;;;;;13.12;62.42;100035.25;4861396;29;10099;-73
2021/03/17 09:22:59;;;;;;;;;12.25;12.25;;;;;13.17;61.52;100039.69;4861289;29;10105;-74
2021/03/17 09:25:57;;;;;;;;;14.75;13.75;;;;;13.24;61.93;100039.88;4859932;29;10130;-71
2021/03/17 09:28:53;;;;;;;;;11.00;11.00;;;;;13.27;61.69;100036.41;4860440;29;10826;-72
2021/03/17 09:31:53;;;;;;;;;10.00;10.00;;;;;13.12;61.13;100040.00;4859671;29;10066;-72
2021/03/17 09:34:29;;;;;;;;;10.00;10.00;;;;;13.45;61.62;100031.19;4864205;29;10134;-73
2021/03/17 09:37:25;;;;;;;;;10.25;10.25;;;;;13.60;58.95;100039.44;4880498;29;9932;-73
2021/03/17 09:40:20;;;;;;;;;4.25;4.25;;;;;13.68;56.41;100045.16;4879114;29;10051;-73
2021/03/17 09:43:32;;;;;;;;;8.75;8.75;;;;;13.84;56.00;100048.63;4879820;29;9512;-72
2021/03/17 09:46:31;;;;;;;;;8.00;8.00;;;;;13.92;54.53;100039.25;4867697;29;9843;-73
2021/03/17 09:49:27;;;;;;;;;9.75;9.75;;;;;14.10;54.64;100048.72;4880579;29;9687;-72
2021/03/17 09:52:23;;;;;;;;;11.75;11.75;;;;;14.26;54.38;100042.22;4882177;29;9772;-73
2021/03/17 09:55:34;;;;;;;;;7.00;7.00;;;;;14.18;52.20;100042.13;4882641;29;9660;-73
2021/03/17 09:58:30;;;;;;;;;9.50;9.50;;;;;14.27;53.52;100041.88;4882602;29;9802;-74
2021/03/17 10:01:25;;;;;;;;;6.67;6.67;;;;;14.60;50.95;100034.88;4882544;29;9785;-73
2021/03/17 10:04:24;;;;;;;;;8.33;8.33;;;;;14.50;50.03;100027.16;4883205;29;9395;-72
2021/03/17 10:07:19;;;;;;;;;7.33;7.33;;;;;14.67;50.85;100030.22;4880882;29;9509;-72
2021/03/17 10:09:57;;;;;;;;;8.00;8.00;;;;;14.49;50.96;100019.97;4877724;29;9384;-72
2021/03/17 10:12:54;;;;;;;;;11.00;11.00;;;;;14.98;50.84;100022.72;4860851;29;9401;-73
2021/03/17 10:15:24;;;;;;;;;8.67;8.67;;;;;15.07;49.42;100028.81;4848259;29;10407;-73
2021/03/17 10:17:57;;;;;;;;;13.33;13.33;;;;;15.02;49.57;100024.34;4876393;29;9098;-72
2021/03/17 10:20:41;;;;;;;;;9.00;9.00;;;;;15.18;49.78;100021.41;4882632;29;9363;-74
2021/03/17 10:23:09;;;;;;;;;12.00;12.00;;;;;14.94;50.44;100028.22;4882412;29;9293;-72
2021/03/17 10:25:38;;;;;;;;;8.33;8.33;;;;;15.16;50.10;100023.75;4885102;29;9399;-72
2021/03/17 10:28:12;;;;;;;;;9.00;9.00;;;;;15.28;50.53;100017.16;4882509;29;9131;-74
2021/03/17 10:30:43;;;;;;;;;8.33;8.33;;;;;15.34;50.17;100031.56;4882454;29;9077;-73
2021/03/17 10:33:14;;;;;;;;;11.00;11.00;;;;;14.91;50.85;100026.19;4860992;29;9011;-72
2021/03/17 10:35:44;;;;;;;;;8.67;8.67;;;;;15.02;51.21;100026.34;4881894;29;9935;-72
2021/03/17 10:38:13;;;;;;;;;9.33;9.33;;;;;15.10;52.88;100018.88;4866405;29;9909;-73
2021/03/17 10:40:47;;;;;;;;;10.00;10.00;;;;;14.95;51.77;100023.44;4866724;29;9351;-72
2021/03/17 10:43:19;;;;;;;;;11.33;11.33;;;;;14.91;52.26;100020.63;4857427;29;9299;-73
2021/03/17 10:45:50;;;;;;;;;11.00;10.00;;;;;14.89;51.24;100020.22;4856879;29;9350;-73
2021/03/17 10:48:22;;;;;;;;;12.00;12.00;;;;;15.00;51.45;100021.16;4881867;29;9370;-73
2021/03/17 10:50:51;;;;;;;;;13.00;13.00;;;;;14.96;51.98;100016.72;4881511;29;9363;-73
2021/03/17 10:53:21;;;;;;;;;9.33;8.00;;;;;14.97;51.20;100023.91;4879997;29;9372;-73
2021/03/17 10:55:52;;;;;;;;;11.33;11.33;;;;;14.91;50.67;100014.25;4854428;29;9267;-72
2021/03/17 10:58:49;;;;;;;;;10.33;10.33;;;;;14.91;51.43;100008.69;4864114;29;9450;-72
2021/03/17 11:01:23;;;;;;;;;10.00;9.00;;;;;14.80;52.33;100019.69;4880774;29;9432;-70
2021/03/17 11:04:06;;;;;;;;;10.00;10.00;;;;;14.76;53.23;100012.44;4879768;29;8979;-72
2021/03/17 11:06:59;;;;;;;;;9.33;9.33;;;;;14.76;52.21;100010.47;4892955;29;9464;-72
2021/03/17 11:09:54;;;;;;;;;9.67;9.33;;;;;14.91;51.69;100011.47;4861065;29;9390;-73
2021/03/17 11:12:37;;;;;;;;;11.33;11.33;;;;;14.92;51.74;100019.44;4862810;29;9221;-72
2021/03/17 11:15:32;;;;;;;;;13.00;13.00;;;;;14.96;52.06;100013.94;4861998;29;9219;-70
2021/03/17 11:18:32;;;;;;;;;14.33;14.33;;;;;14.86;52.87;100009.00;4862692;29;9355;-72
2021/03/17 11:21:34;;;;;;;;;13.75;13.75;;;;;14.82;52.48;100006.19;4884882;29;9639;-73
2021/03/17 11:24:24;;;;;;;;;13.00;12.00;;;;;14.74;52.51;99998.91;4882698;29;9512;-72
2021/03/17 11:27:26;;;;;;;;;7.33;7.33;;;;;14.80;51.74;100007.72;4880721;29;9547;-73
2021/03/17 11:30:22;;;;;;;;;12.25;12.25;;;;;14.77;52.10;100002.91;4866973;29;9395;-72
2021/03/17 11:33:19;;;;;;;;;11.00;11.00;;;;;14.42;53.17;100004.78;4867939;29;9623;-72
2021/03/17 11:36:17;;;;;;;;;11.25;11.25;;;;;14.50;52.56;100005.72;4867818;29;9517;-74
2021/03/17 11:39:15;;;;;;;;;10.00;10.00;;;;;14.31;53.14;100006.56;4880484;29;9518;-73
2021/03/17 11:42:11;;;;;;;;;10.33;10.33;;;;;14.20;53.71;100011.16;4867152;29;9464;-73
2021/03/17 11:45:08;;;;;;;;;12.75;12.75;;;;;14.26;53.69;100004.13;4872625;29;10230;-73
2021/03/17 11:48:05;;;;;;;;;16.00;16.00;;;;;14.28;54.23;99998.97;4867349;29;9596;-73
2021/03/17 11:51:04;;;;;;;;;14.50;14.50;;;;;13.98;55.42;99998.06;4879025;29;10453;-73
2021/03/17 11:54:02;;;;;;;;;15.00;15.00;;;;;13.97;55.54;100002.03;4860891;29;9705;-73
2021/03/17 11:57:00;;;;;;;;;10.00;10.00;;;;;13.85;55.37;99991.88;4860649;29;9766;-73
2021/03/17 11:59:57;;;;;;;;;10.75;10.75;;;;;13.47;56.15;99985.22;4861702;29;9915;-73
2021/03/17 12:02:28;;;;;;;;;14.50;13.25;;;;;13.50;56.40;99990.06;4862050;29;9920;-72
2021/03/17 12:05:24;;;;;;;;;10.75;10.75;;;;;13.57;56.56;99998.53;4860801;29;9843;-73
2021/03/17 12:08:21;;;;;;;;;13.50;13.50;;;;;13.48;56.49;99995.16;4854783;29;9843;-74
2021/03/17 12:11:06;;;;;;;;;16.25;15.00;;;;;13.48;56.37;99986.00;4866564;29;10574;-75
2021/03/17 12:13:49;;;;;;;;;13.00;12.00;;;;;13.40;57.22;99987.03;4880558;29;10056;-72
2021/03/17 12:16:45;;;;;;;;;12.00;12.00;;;;;13.61;56.95;99982.72;4878249;29;10165;-73
2021/03/17 12:19:40;;;;;;;;;9.25;9.25;;;;;13.91;56.23;99976.50;4877747;29;9892;-73
2021/03/17 12:22:37;;;;;;;;;11.00;10.00;;;;;14.40;55.26;99979.28;4876824;29;10475;-71
2021/03/17 12:25:07;;;;;;;;;12.50;12.50;;;;;14.89;55.66;99969.31;4879580;29;9742;-74
2021/03/17 12:28:03;;;;;;;;;11.33;11.33;;;;;15.17;54.99;99964.06;4872972;29;10382;-72
2021/03/17 12:30:30;;;;;;;;;13.67;13.00;;;;;15.16;54.82;99956.91;4879268;29;9508;-74
2021/03/17 12:33:26;;;;;;;;;15.00;15.00;;;;;15.06;54.51;99949.22;4876195;29;9426;-73
2021/03/17 12:35:54;;;;;;;;;16.00;16.00;;;;;15.01;53.24;99947.56;4873354;29;9531;-73
2021/03/17 12:38:24;;;;;;;;;14.25;14.25;;;;;14.90;53.80;99949.44;4877297;29;10233;-73
2021/03/17 12:41:21;;;;;;;;;17.75;16.75;;;;;15.15;54.17;99948.94;4877352;29;9591;-73
2021/03/17 12:44:17;;;;;;;;;19.00;17.00;;;;;15.15;53.40;99946.16;4876701;29;9701;-72
2021/03/17 12:47:14;;;;;;;;;14.00;13.25;;;;;15.35;53.55;99952.38;4877497;29;9570;-72
2021/03/17 12:50:12;;;;;;;;;15.67;15.67;;;;;15.55;53.52;99948.97;4876124;29;9486;-72
2021/03/17 12:53:08;;;;;;;;;15.00;15.00;;;;;15.79;53.12;99944.88;4877464;29;9359;-72
2021/03/17 12:56:05;;;;;;;;;13.00;13.00;;;;;16.49;51.83;99947.84;4877489;29;9209;-72
2021/03/17 12:58:34;;;;;;;;;12.33;12.33;;;;;17.01;50.47;99940.94;4880167;29;9123;-72
2021/03/17 13:01:29;;;;;;;;;14.75;14.75;;;;;16.58;48.72;99940.72;4876683;29;8953;-73
2021/03/17 13:04:25;;;;;;;;;13.00;13.00;;;;;17.29;48.50;99943.06;4879480;29;8943;-72
2021/03/17 13:07:21;;;;;;;;;17.25;17.25;;;;;17.80;47.90;99947.59;4878698;29;8854;-73
2021/03/17 13:09:58;;;;;;;;;9.00;9.00;;;;;18.10;48.14;99949.22;4878885;29;9696;-72
2021/03/17 13:12:26;;;;;;;;;10.50;10.00;;;;;17.65;47.59;99940.34;4886443;29;8870;-72
2021/03/17 13:15:22;;;;;;;;;11.50;11.50;;;;;17.43;46.70;99937.50;4878315;29;8883;-72
2021/03/17 13:18:18;;;;;;;;;16.25;16.25;;;;;17.17;48.67;99935.81;4876554;29;8871;-73